Terminal Aerodrome Forecast
Issued by NWS Louisville, KY

Home | Current Version | Previous Version | Text Only | Print | Product List | Glossary On
Versions: 1 2 3 4 5 6 7 8 9 10 11 12 13
000
FTUS43 KLMK 311700
TAFSDF
TAF
KSDF 311729Z 3118/0124 24005KT P6SM SCT050 SCT250
     FM010100 VRB03KT P6SM SCT250
     FM011400 03004KT P6SM SCT060 SCT250=

USA.gov is the U.S. government's official web portal to all federal, state and local government web resources and services.